Nearby METAR Reports

 

KSJC - San Jose, California, USA
Distance from station: NE 14km
Updated: 19/10/2020 13:53
Clear
Clear
 Wind from NNW
Wind: NNW 17 km/h
Temperature: 26°C
Dew Point: 9°C
Humidity: 34%
Barometer: 1014.9 hPa
Clouds: Clear
Visibility: 16 km
2020/10/19 20:53 KSJC 192053Z 33009KT 10SM CLR 26/09 A2997 RMK AO2 SLP148 T02560089 58012
KNUQ - Moffett Nas/Mtn, California, USA
Distance from station: N 14km
Updated: 19/10/2020 06:55
NOT Current

 Wind from calm
Wind: Calm
Temperature: 14°C
Dew Point: 12°C
Humidity: 88%
Barometer: 1015.9 hPa
Visibility: 16 km
2020/10/19 13:55 KNUQ 191355Z AUTO 00000KT 10SM 14/12 A3000 RMK AO2
 
KPAO - Palo Alto, California, USA
Distance from station: NNW 23km
Updated: 19/10/2020 13:47
Clear
Clear
 Wind from N
Wind: N 11 km/h
Temperature: 24°C
Dew Point: 14°C
Humidity: 54%
Barometer: 1014.9 hPa
Clouds: Clear
Visibility: 16 km
2020/10/19 20:47 KPAO 192047Z 01006KT 10SM SKC 24/14 A2997
KRHV - San Jose/Reid, California, USA
Distance from station: ENE 19km
Updated: 19/10/2020 12:47
NOT Current
Clear
Clear
 Wind from WNW
Wind: WNW 15 km/h
Temperature: 25°C
Dew Point: 12°C
Humidity: 44%
Barometer: 1015.9 hPa
Clouds: Clear
Visibility: 16 km
2020/10/19 19:47 KRHV 191947Z 29008KT 10SM SKC 25/12 A3000
 
KOAK - Oakland, California, USA
Distance from station: NNW 50km
Updated: 19/10/2020 13:53
Clear
Clear
 Wind from WSW
Wind: WSW 9 km/h
Temperature: 23°C
Dew Point: 13°C
Humidity: 53%
Barometer: 1015.2 hPa
Clouds: Clear
Visibility: 16 km
2020/10/19 20:53 KOAK 192053Z 25005KT 10SM CLR 23/13 A2998 RMK AO2 SLP150 T02280128 58016
KSQL - San Carlos Airpo, California, USA
Distance from station: NW 34km
Updated: 19/10/2020 12:47
NOT Current
Clear
Clear
 Wind from N
Wind: N 9 km/h
Temperature: 22°C
Dew Point: 14°C
Humidity: 61%
Barometer: 1016.3 hPa
Clouds: Clear
Visibility: 16 km
2020/10/19 19:47 KSQL 191947Z 35005KT 10SM SKC 22/14 A3001
 
KSFO - San Francisco, California, USA
Distance from station: NW 49km
Updated: 19/10/2020 13:56
Clear
Clear
 Wind from WNW
Wind: WNW 31 km/h
Temperature: 23°C
Dew Point: 12°C
Humidity: 50%
Barometer: 1014.9 hPa
Clouds: Clear
Visibility: 16 km
2020/10/19 20:56 KSFO 192056Z 30017KT 10SM CLR 23/12 A2997 RMK AO2 SLP147 T02330117 58019
KE16 - San Martin, California, USA
Distance from station: ESE 43km
Updated: 19/10/2020 13:50
Clear
Clear
 Wind from NNW
Wind: NNW 28 km/h
Temperature: 29°C
Dew Point: 8°C
Humidity: 27%
Barometer: 1014.6 hPa
Clouds: Clear
Visibility: 16 km
2020/10/19 20:50 KE16 192050Z AUTO 33015KT 10SM CLR 29/08 A2996 RMK AO2
 
KWVI - Watsonville, California, USA
Distance from station: SSE 44km
Updated: 19/10/2020 13:53
Clear
Clear
 Wind from W
Wind: W 15 km/h
Temperature: 22°C
Dew Point: 12°C
Humidity: 53%
Barometer: 1015.2 hPa
Clouds: Clear
Visibility: 16 km
2020/10/19 20:53 KWVI 192053Z AUTO 28008KT 10SM CLR 22/12 A2998 RMK AO2 SLP151 T02170122 56014
KHAF - Half Moon Bay, California, USA
Distance from station: WNW 50km
Updated: 19/10/2020 13:55
Mist, Overcast
Mist, Overcast
 
Temperature: 14°C
Dew Point: 13°C
Humidity: 94%
Barometer: 1016.6 hPa
Summary: Mist
Clouds: Overcast
Visibility: 1.2 km
Cloud details: Overcast 91 m
2020/10/19 20:55 KHAF 192055Z AUTO 3/4SM BR OVC003 14/13 A3002 RMK AO2
 
KHWD - Hayward, California, USA
Distance from station: N 44km
Updated: 19/10/2020 13:54
Clear
Clear
 Wind from W
Wind: W 13 km/h
Temperature: 23°C
Dew Point: 12°C
Humidity: 50%
Barometer: 1014.9 hPa
Clouds: Clear
Visibility: 16 km
2020/10/19 20:54 KHWD 192054Z 26007KT 10SM CLR 23/12 A2997 RMK AO2 SLP157 T02330117 58016
KLVK - Livermore, California, USA
Distance from station: NNE 51km
Updated: 19/10/2020 13:53
Clear
Clear
 Wind from SW
Wind: SW 9 km/h
Temperature: 31°C
Dew Point: 7°C
Humidity: 22%
Barometer: 1014.2 hPa
Clouds: Clear
Visibility: 16 km
2020/10/19 20:53 KLVK 192053Z 23005KT 10SM CLR 31/07 A2995 RMK AO2 SLP139 T03110072 58017